Time;durP1;ratioP1;P1;durP2;ratioP2;P2;SDS_P1;SDS_P2;PMS_P1;PMS_P2;Temp;Humidity;BMP_temperature;BMP_pressure;BME280_temperature;BME280_humidity;BME280_pressure;Samples;Min_cycle;Max_cycle;Signal;HPM_P1;HPM_P2
2023/08/30 00:01:29;;;;;;;;;;;19.00;70.80;;;;;;5094289;28;19968;-68
2023/08/30 00:03:55;;;;;;;;;;;19.00;70.80;;;;;;5131489;27;19969;-68
2023/08/30 00:06:20;;;;;;;;;;;19.00;70.80;;;;;;5116010;28;20421;-69
2023/08/30 00:08:46;;;;;;;;;;;19.00;70.80;;;;;;5097831;28;19924;-69
2023/08/30 00:11:11;;;;;;;;;;;19.00;70.80;;;;;;5097897;28;19920;-68
2023/08/30 00:13:37;;;;;;;;;;;19.00;70.80;;;;;;5097608;28;19919;-72
2023/08/30 00:16:02;;;;;;;;;;;18.90;70.70;;;;;;5096609;28;20006;-68
2023/08/30 00:18:28;;;;;;;;;;;18.90;70.70;;;;;;5097387;28;19977;-74
2023/08/30 00:20:54;;;;;;;;;;;18.90;70.70;;;;;;5097704;28;19919;-67
2023/08/30 00:23:19;;;;;;;;;;;18.90;70.70;;;;;;5097313;28;19972;-66
2023/08/30 00:25:45;;;;;;;;;;;18.90;70.70;;;;;;5097298;28;19920;-66
2023/08/30 00:28:10;;;;;;;;;;;18.90;70.70;;;;;;5097416;28;20324;-66
2023/08/30 00:30:36;;;;;;;;;;;18.90;70.70;;;;;;5097390;28;19920;-66
2023/08/30 00:33:02;;;;;;;;;;;18.90;70.70;;;;;;5097329;28;20264;-73
2023/08/30 00:35:27;;;;;;;;;;;18.90;70.60;;;;;;5097042;28;20015;-72
2023/08/30 00:37:53;;;;;;;;;;;18.90;70.60;;;;;;5097223;28;19920;-66
2023/08/30 00:40:22;;;;;;;;;;;18.90;70.70;;;;;;5115297;28;20387;-66
2023/08/30 00:42:47;;;;;;;;;;;18.90;70.60;;;;;;5097135;28;20370;-73
2023/08/30 00:45:13;;;;;;;;;;;18.90;70.60;;;;;;5096696;28;19923;-66
2023/08/30 00:47:38;;;;;;;;;;;18.90;71.30;;;;;;5115147;28;19923;-72
2023/08/30 00:50:05;;;;;;;;;;;18.90;70.50;;;;;;5114906;28;19963;-73
2023/08/30 00:52:31;;;;;;;;;;;18.90;70.60;;;;;;5097092;28;19959;-66
2023/08/30 00:54:56;;;;;;;;;;;18.90;70.60;;;;;;5096480;28;20382;-66
2023/08/30 00:57:22;;;;;;;;;;;18.90;70.50;;;;;;5096569;28;19920;-66
2023/08/30 00:59:48;;;;;;;;;;;18.90;70.50;;;;;;5096374;28;19926;-66
2023/08/30 01:02:13;;;;;;;;;;;18.90;70.50;;;;;;5114670;28;20406;-66
2023/08/30 01:04:39;;;;;;;;;;;18.90;70.50;;;;;;5130554;27;19952;-66
2023/08/30 01:07:04;;;;;;;;;;;18.80;70.50;;;;;;5130886;27;19965;-73
2023/08/30 01:09:30;;;;;;;;;;;18.80;70.50;;;;;;5096269;28;20301;-72
2023/08/30 01:17:18;;;;;;;;;;;18.80;70.40;;;;;;5151561;27;20376;-74
2023/08/30 01:27:56;;;;;;;;;;;18.80;70.40;;;;;;5110400;27;19919;-73
2023/08/30 01:30:22;;;;;;;;;;;18.80;70.40;;;;;;5109231;28;20349;-67
2023/08/30 01:32:48;;;;;;;;;;;18.80;70.40;;;;;;5108955;28;19928;-73
2023/08/30 01:35:17;;;;;;;;;;;18.80;70.40;;;;;;5109181;28;19927;-66
2023/08/30 01:37:44;;;;;;;;;;;18.80;70.40;;;;;;5110594;28;19920;-66
2023/08/30 01:40:11;;;;;;;;;;;18.80;70.40;;;;;;5109125;28;20019;-73
2023/08/30 01:42:37;;;;;;;;;;;18.80;70.40;;;;;;5108809;28;19927;-66
2023/08/30 01:45:03;;;;;;;;;;;18.80;70.40;;;;;;5109109;28;19920;-66
2023/08/30 01:47:29;;;;;;;;;;;18.80;70.40;;;;;;5108789;28;20429;-73
2023/08/30 01:49:55;;;;;;;;;;;18.80;70.40;;;;;;5108636;28;20391;-66
2023/08/30 01:52:22;;;;;;;;;;;18.80;70.40;;;;;;5108483;28;19927;-66
2023/08/30 01:54:47;;;;;;;;;;;18.80;70.40;;;;;;5108536;28;19967;-73
2023/08/30 01:57:13;;;;;;;;;;;18.70;70.30;;;;;;5108400;28;20008;-66
2023/08/30 01:59:38;;;;;;;;;;;18.70;70.30;;;;;;5109867;28;19927;-73
2023/08/30 02:02:04;;;;;;;;;;;18.70;70.30;;;;;;5108622;28;19920;-73
2023/08/30 02:04:31;;;;;;;;;;;18.70;70.30;;;;;;5108513;28;19926;-73
2023/08/30 02:07:02;;;;;;;;;;;18.70;70.30;;;;;;5108162;28;19935;-66
2023/08/30 02:09:29;;;;;;;;;;;18.70;70.30;;;;;;5108566;28;19928;-66
2023/08/30 02:11:56;;;;;;;;;;;18.70;70.30;;;;;;5108111;28;19965;-73
2023/08/30 02:14:23;;;;;;;;;;;18.70;70.30;;;;;;5109454;28;19924;-73
2023/08/30 02:16:48;;;;;;;;;;;18.70;70.30;;;;;;5108051;28;20398;-66
2023/08/30 02:19:16;;;;;;;;;;;18.70;70.30;;;;;;5108346;28;19920;-66
2023/08/30 02:21:42;;;;;;;;;;;18.70;70.30;;;;;;5109211;28;20363;-66
2023/08/30 02:24:08;;;;;;;;;;;18.70;70.30;;;;;;5109222;28;19973;-71
2023/08/30 02:26:33;;;;;;;;;;;18.70;70.20;;;;;;5118283;28;20385;-67
2023/08/30 02:28:59;;;;;;;;;;;18.70;70.20;;;;;;5111214;28;20006;-72
2023/08/30 02:31:24;;;;;;;;;;;18.70;70.20;;;;;;5145529;27;19988;-72
2023/08/30 02:33:50;;;;;;;;;;;18.70;70.20;;;;;;5111134;28;19919;-73
2023/08/30 02:36:15;;;;;;;;;;;18.70;70.20;;;;;;5111147;28;19919;-72
2023/08/30 02:38:41;;;;;;;;;;;18.70;70.20;;;;;;5100751;28;20344;-66
2023/08/30 02:41:06;;;;;;;;;;;18.70;70.20;;;;;;5097457;28;19920;-66
2023/08/30 02:43:32;;;;;;;;;;;18.60;70.10;;;;;;5097351;28;20006;-66
2023/08/30 02:45:57;;;;;;;;;;;18.70;70.20;;;;;;5097200;28;19928;-66
2023/08/30 02:48:23;;;;;;;;;;;18.70;70.20;;;;;;5131723;27;19987;-66
2023/08/30 02:50:49;;;;;;;;;;;18.70;70.20;;;;;;5115490;28;20067;-72
2023/08/30 02:53:14;;;;;;;;;;;18.70;70.20;;;;;;5115414;28;19920;-73
2023/08/30 02:55:40;;;;;;;;;;;18.70;70.10;;;;;;5097448;28;19923;-66
2023/08/30 02:58:05;;;;;;;;;;;18.70;70.10;;;;;;5097326;28;20020;-73
2023/08/30 03:00:31;;;;;;;;;;;18.70;70.20;;;;;;5131300;27;20291;-66
2023/08/30 03:02:56;;;;;;;;;;;18.60;70.10;;;;;;5097442;28;19923;-73
2023/08/30 03:05:22;;;;;;;;;;;18.60;70.10;;;;;;5115342;28;20438;-66
2023/08/30 03:07:47;;;;;;;;;;;18.60;70.00;;;;;;5115091;28;19994;-71
2023/08/30 03:10:13;;;;;;;;;;;18.70;70.10;;;;;;5097269;28;20427;-73
2023/08/30 03:12:38;;;;;;;;;;;18.60;70.00;;;;;;5097159;28;19945;-66
2023/08/30 03:15:04;;;;;;;;;;;18.60;70.00;;;;;;5115224;28;20139;-74
2023/08/30 03:17:30;;;;;;;;;;;18.60;70.00;;;;;;5115060;28;19924;-73
2023/08/30 03:19:55;;;;;;;;;;;18.60;70.00;;;;;;5096600;28;20290;-67
2023/08/30 03:22:21;;;;;;;;;;;18.60;70.00;;;;;;5096998;28;20247;-66
2023/08/30 03:24:47;;;;;;;;;;;18.60;70.00;;;;;;5096734;28;19924;-72
2023/08/30 03:27:12;;;;;;;;;;;18.60;70.00;;;;;;5096300;28;19924;-67
2023/08/30 03:29:41;;;;;;;;;;;18.60;69.90;;;;;;5096431;28;19927;-73
2023/08/30 03:32:06;;;;;;;;;;;18.60;69.90;;;;;;5096526;28;19920;-67
2023/08/30 03:34:32;;;;;;;;;;;18.60;69.90;;;;;;5096352;28;19919;-66
2023/08/30 03:36:57;;;;;;;;;;;18.60;69.90;;;;;;5096660;28;19958;-66
2023/08/30 03:39:24;;;;;;;;;;;18.60;69.90;;;;;;5096566;28;20014;-66
2023/08/30 03:41:49;;;;;;;;;;;18.60;69.90;;;;;;5114510;28;20393;-72
2023/08/30 03:44:15;;;;;;;;;;;18.60;69.90;;;;;;5096106;28;19919;-73
2023/08/30 03:46:40;;;;;;;;;;;18.60;69.90;;;;;;5114360;28;19928;-66
2023/08/30 03:49:06;;;;;;;;;;;18.60;69.90;;;;;;5113677;28;19943;-66
2023/08/30 03:51:31;;;;;;;;;;;18.50;69.80;;;;;;5114095;28;19920;-73
2023/08/30 03:53:57;;;;;;;;;;;18.50;69.80;;;;;;5096034;28;20010;-72
2023/08/30 03:56:23;;;;;;;;;;;18.50;69.80;;;;;;5095814;28;19927;-66
2023/08/30 03:58:48;;;;;;;;;;;18.50;69.80;;;;;;5114219;28;19972;-72
2023/08/30 04:01:14;;;;;;;;;;;18.60;69.80;;;;;;5096166;28;19926;-71
2023/08/30 04:03:39;;;;;;;;;;;18.50;69.80;;;;;;5096078;28;19920;-67
2023/08/30 04:06:04;;;;;;;;;;;18.50;69.80;;;;;;5095880;28;19927;-73
2023/08/30 04:08:30;;;;;;;;;;;18.50;69.70;;;;;;5129949;27;19926;-66
2023/08/30 04:10:56;;;;;;;;;;;18.50;69.80;;;;;;5120572;27;19945;-72
2023/08/30 04:13:21;;;;;;;;;;;18.50;69.70;;;;;;5075629;28;20010;-66
2023/08/30 04:15:47;;;;;;;;;;;18.50;69.70;;;;;;5075255;28;19923;-66
2023/08/30 04:18:13;;;;;;;;;;;18.50;69.70;;;;;;5093433;28;19971;-66
2023/08/30 04:20:42;;;;;;;;;;;18.50;70.40;;;;;;5075136;28;19931;-66
2023/08/30 04:23:08;;;;;;;;;;;18.50;69.70;;;;;;5075513;28;19920;-73
2023/08/30 04:25:33;;;;;;;;;;;18.50;69.70;;;;;;5074771;28;20298;-66
2023/08/30 04:27:59;;;;;;;;;;;18.50;69.70;;;;;;5109221;28;19928;-66
2023/08/30 04:30:24;;;;;;;;;;;18.50;69.70;;;;;;5075251;28;19920;-66
2023/08/30 04:32:50;;;;;;;;;;;18.50;69.60;;;;;;5075470;28;19926;-73
2023/08/30 04:35:15;;;;;;;;;;;18.50;69.60;;;;;;5093227;28;19920;-72
2023/08/30 04:37:42;;;;;;;;;;;18.50;69.60;;;;;;5109068;28;19924;-73
2023/08/30 04:40:09;;;;;;;;;;;18.50;69.60;;;;;;5075172;28;19935;-72
2023/08/30 04:42:35;;;;;;;;;;;18.50;69.60;;;;;;5075043;28;20388;-73
2023/08/30 04:45:01;;;;;;;;;;;18.50;69.60;;;;;;5074773;28;20011;-66
2023/08/30 04:47:28;;;;;;;;;;;18.50;69.60;;;;;;5092755;28;20387;-73
2023/08/30 04:49:53;;;;;;;;;;;18.50;69.60;;;;;;5075094;28;19932;-73
2023/08/30 04:52:19;;;;;;;;;;;18.40;69.50;;;;;;5092871;28;19920;-66
2023/08/30 04:54:45;;;;;;;;;;;18.40;69.50;;;;;;5075006;28;20488;-66
2023/08/30 04:57:14;;;;;;;;;;;18.40;69.50;;;;;;5074516;28;19920;-66
2023/08/30 04:59:40;;;;;;;;;;;18.40;69.50;;;;;;5093009;28;19986;-67
2023/08/30 05:02:05;;;;;;;;;;;18.40;69.50;;;;;;5096766;28;19926;-66
2023/08/30 05:04:31;;;;;;;;;;;18.40;69.50;;;;;;5094857;28;19924;-66
2023/08/30 05:06:56;;;;;;;;;;;18.40;69.50;;;;;;5094678;28;19924;-72
2023/08/30 05:09:24;;;;;;;;;;;18.40;69.50;;;;;;5095014;28;19963;-66
2023/08/30 05:11:51;;;;;;;;;;;18.40;69.50;;;;;;5112863;28;19919;-73
2023/08/30 05:14:17;;;;;;;;;;;18.40;69.40;;;;;;5095015;28;19919;-73
2023/08/30 05:16:42;;;;;;;;;;;18.40;69.40;;;;;;5112917;28;19920;-66
2023/08/30 05:19:08;;;;;;;;;;;18.40;69.40;;;;;;5128721;27;20508;-67
2023/08/30 05:21:33;;;;;;;;;;;18.40;69.40;;;;;;5093911;28;19962;-69
2023/08/30 05:23:59;;;;;;;;;;;18.40;69.40;;;;;;5094411;28;19927;-68
2023/08/30 05:26:24;;;;;;;;;;;18.40;69.40;;;;;;5112567;28;19930;-72
2023/08/30 05:28:50;;;;;;;;;;;18.40;69.30;;;;;;5112553;28;20322;-71
2023/08/30 05:31:15;;;;;;;;;;;18.40;69.10;;;;;;5095051;28;20006;-71
2023/08/30 05:33:41;;;;;;;;;;;18.40;69.00;;;;;;5112803;28;20409;-68
2023/08/30 05:36:06;;;;;;;;;;;18.40;68.90;;;;;;5094732;28;19955;-72
2023/08/30 05:38:32;;;;;;;;;;;18.40;68.90;;;;;;5128535;28;19924;-71
2023/08/30 05:40:57;;;;;;;;;;;18.40;68.90;;;;;;5128536;28;20006;-69
2023/08/30 05:43:23;;;;;;;;;;;18.40;69.00;;;;;;5128347;28;20264;-69
2023/08/30 05:45:48;;;;;;;;;;;18.40;68.90;;;;;;5094535;28;20010;-69
2023/08/30 05:48:14;;;;;;;;;;;18.40;68.90;;;;;;5128563;28;19924;-68
2023/08/30 05:50:40;;;;;;;;;;;18.50;69.00;;;;;;5091798;28;20024;-67
2023/08/30 05:53:06;;;;;;;;;;;18.40;68.90;;;;;;5093674;28;19920;-68
2023/08/30 05:55:31;;;;;;;;;;;18.50;69.00;;;;;;5094512;28;19919;-68
2023/08/30 05:57:57;;;;;;;;;;;18.50;69.00;;;;;;5094090;28;19924;-67
2023/08/30 06:00:23;;;;;;;;;;;18.50;69.00;;;;;;5094306;28;20014;-70
2023/08/30 06:02:51;;;;;;;;;;;18.50;69.70;;;;;;5094434;28;19964;-71
2023/08/30 06:05:16;;;;;;;;;;;18.50;68.90;;;;;;5094412;28;19920;-66
2023/08/30 06:07:42;;;;;;;;;;;18.50;68.80;;;;;;5094030;28;20397;-68
2023/08/30 06:10:07;;;;;;;;;;;18.50;68.70;;;;;;5112241;28;19924;-67
2023/08/30 06:12:33;;;;;;;;;;;18.40;68.60;;;;;;5112644;28;19920;-68
2023/08/30 06:14:58;;;;;;;;;;;18.50;68.60;;;;;;5131861;27;19920;-68
2023/08/30 06:17:24;;;;;;;;;;;18.50;68.60;;;;;;5097880;28;19920;-68
2023/08/30 06:19:49;;;;;;;;;;;18.40;68.50;;;;;;5132252;27;19923;-67
2023/08/30 06:22:15;;;;;;;;;;;18.50;68.50;;;;;;5095619;28;19926;-73
2023/08/30 06:24:40;;;;;;;;;;;18.50;68.50;;;;;;5097696;28;20531;-73
2023/08/30 06:27:06;;;;;;;;;;;18.50;68.40;;;;;;5097321;28;19969;-73
2023/08/30 06:29:31;;;;;;;;;;;18.50;68.40;;;;;;5096992;28;19955;-65
2023/08/30 06:31:57;;;;;;;;;;;18.50;68.50;;;;;;5115487;28;19919;-73
2023/08/30 06:34:23;;;;;;;;;;;18.50;68.50;;;;;;5097555;28;19920;-65
2023/08/30 06:36:48;;;;;;;;;;;18.60;68.60;;;;;;5097482;28;19980;-73
2023/08/30 06:39:14;;;;;;;;;;;18.50;68.50;;;;;;5096576;28;20424;-65
2023/08/30 06:41:39;;;;;;;;;;;18.60;68.50;;;;;;5097144;28;19920;-72
2023/08/30 06:44:05;;;;;;;;;;;18.50;68.40;;;;;;5115365;28;19927;-64
2023/08/30 06:46:30;;;;;;;;;;;18.60;68.40;;;;;;5114439;28;20011;-63
2023/08/30 06:48:56;;;;;;;;;;;18.60;68.40;;;;;;5115346;28;20006;-68
2023/08/30 06:51:21;;;;;;;;;;;18.50;68.30;;;;;;5097061;28;19920;-63
2023/08/30 06:53:47;;;;;;;;;;;18.60;68.30;;;;;;5097345;28;19967;-63
2023/08/30 06:56:12;;;;;;;;;;;18.50;68.30;;;;;;5097283;28;19926;-63
2023/08/30 06:58:38;;;;;;;;;;;18.50;68.20;;;;;;5097011;28;19920;-70
2023/08/30 07:01:04;;;;;;;;;;;18.50;68.20;;;;;;5115102;28;19920;-69
2023/08/30 07:03:29;;;;;;;;;;;18.50;68.90;;;;;;5095632;28;19919;-63
2023/08/30 07:05:54;;;;;;;;;;;18.50;68.10;;;;;;5096476;28;19920;-63
2023/08/30 07:08:20;;;;;;;;;;;18.50;68.80;;;;;;5096854;28;19923;-70
2023/08/30 07:10:46;;;;;;;;;;;18.60;68.10;;;;;;5109155;28;19989;-63
2023/08/30 07:13:12;;;;;;;;;;;18.50;68.00;;;;;;5095574;28;20330;-63
2023/08/30 07:15:39;;;;;;;;;;;18.50;68.00;;;;;;5097042;28;20036;-63
2023/08/30 07:18:05;;;;;;;;;;;18.60;68.00;;;;;;5130499;27;19926;-63
2023/08/30 07:20:31;;;;;;;;;;;18.50;67.90;;;;;;5081819;28;20003;-63
2023/08/30 07:22:56;;;;;;;;;;;18.60;67.90;;;;;;5091197;28;19919;-63
2023/08/30 07:25:22;;;;;;;;;;;18.50;67.90;;;;;;5096277;28;20435;-63
2023/08/30 07:27:47;;;;;;;;;;;18.60;68.00;;;;;;5095883;28;19931;-63
2023/08/30 07:30:13;;;;;;;;;;;18.60;68.00;;;;;;5097036;28;20394;-67
2023/08/30 07:32:39;;;;;;;;;;;18.60;68.00;;;;;;5095244;28;20010;-64
2023/08/30 07:35:05;;;;;;;;;;;18.60;68.00;;;;;;5113732;28;19945;-64
2023/08/30 07:37:30;;;;;;;;;;;18.60;68.00;;;;;;5095758;28;19927;-63
2023/08/30 07:39:56;;;;;;;;;;;18.60;68.10;;;;;;5095844;28;19920;-63
2023/08/30 07:42:21;;;;;;;;;;;18.70;68.20;;;;;;5096057;28;20022;-63
2023/08/30 07:44:47;;;;;;;;;;;18.60;68.20;;;;;;5095727;28;19924;-68
2023/08/30 07:47:13;;;;;;;;;;;18.70;68.20;;;;;;5115723;27;19924;-63
2023/08/30 07:49:38;;;;;;;;;;;18.60;68.10;;;;;;5094535;28;19926;-64
2023/08/30 07:52:04;;;;;;;;;;;18.70;68.20;;;;;;5093961;28;20298;-63
2023/08/30 07:54:30;;;;;;;;;;;18.70;68.20;;;;;;5112740;28;19920;-63
2023/08/30 07:56:56;;;;;;;;;;;18.70;68.10;;;;;;5094309;28;19920;-62
2023/08/30 07:59:21;;;;;;;;;;;18.70;68.10;;;;;;5078925;28;19920;-65
2023/08/30 08:01:47;;;;;;;;;;;18.70;68.20;;;;;;5094861;28;19931;-64
2023/08/30 08:04:12;;;;;;;;;;;18.70;68.20;;;;;;5111749;27;19962;-63
2023/08/30 08:06:38;;;;;;;;;;;18.80;68.90;;;;;;5093669;28;19928;-64
2023/08/30 08:09:04;;;;;;;;;;;18.80;68.20;;;;;;5094943;28;19920;-64
2023/08/30 08:11:29;;;;;;;;;;;18.80;68.20;;;;;;5093248;28;19927;-64
2023/08/30 08:13:55;;;;;;;;;;;18.80;68.20;;;;;;5094817;28;19973;-64
2023/08/30 08:16:20;;;;;;;;;;;18.80;68.10;;;;;;5113639;28;19919;-64
2023/08/30 08:18:46;;;;;;;;;;;18.80;68.10;;;;;;5095106;28;19971;-64
2023/08/30 08:21:11;;;;;;;;;;;18.80;68.10;;;;;;5101873;28;19920;-64
2023/08/30 08:23:37;;;;;;;;;;;18.80;68.00;;;;;;5113291;28;19923;-69
2023/08/30 08:26:02;;;;;;;;;;;18.80;68.00;;;;;;5091338;28;20027;-64
2023/08/30 08:28:28;;;;;;;;;;;18.80;68.00;;;;;;5091670;28;19978;-64
2023/08/30 08:30:54;;;;;;;;;;;18.80;68.00;;;;;;5074808;28;19920;-65
2023/08/30 08:33:22;;;;;;;;;;;18.80;68.00;;;;;;5091472;28;20062;-64
2023/08/30 08:35:48;;;;;;;;;;;18.80;68.00;;;;;;5087242;28;19967;-64
2023/08/30 08:38:14;;;;;;;;;;;18.80;67.90;;;;;;5090454;28;19990;-65
2023/08/30 08:40:39;;;;;;;;;;;18.80;68.00;;;;;;5092753;28;19927;-64
2023/08/30 08:43:05;;;;;;;;;;;18.80;68.00;;;;;;5092811;28;20240;-64
2023/08/30 08:45:34;;;;;;;;;;;18.80;68.00;;;;;;5091609;28;19927;-63
2023/08/30 08:48:00;;;;;;;;;;;18.80;68.00;;;;;;5092560;28;20393;-64
2023/08/30 08:50:28;;;;;;;;;;;18.80;68.10;;;;;;5091489;28;19928;-64
2023/08/30 08:52:54;;;;;;;;;;;18.80;68.10;;;;;;5091572;28;19920;-66
2023/08/30 08:55:19;;;;;;;;;;;18.80;68.20;;;;;;5090882;28;20409;-64
2023/08/30 08:57:45;;;;;;;;;;;18.80;68.10;;;;;;5091529;28;19920;-63
2023/08/30 09:00:11;;;;;;;;;;;18.80;68.20;;;;;;5092047;28;19928;-64
2023/08/30 09:02:36;;;;;;;;;;;18.80;68.30;;;;;;5090659;28;19920;-63
2023/08/30 09:05:04;;;;;;;;;;;18.80;68.40;;;;;;5092180;28;19920;-69
2023/08/30 09:07:30;;;;;;;;;;;18.90;68.50;;;;;;5092418;28;20011;-63
2023/08/30 09:09:56;;;;;;;;;;;18.90;68.50;;;;;;5091957;28;20003;-64
2023/08/30 09:12:22;;;;;;;;;;;18.80;68.50;;;;;;5097801;28;19970;-63
2023/08/30 09:14:55;;;;;;;;;;;18.80;68.70;;;;;;5092163;28;19962;-69
2023/08/30 09:17:21;;;;;;;;;;;18.90;68.80;;;;;;5092241;28;19920;-63
2023/08/30 09:19:46;;;;;;;;;;;18.90;68.90;;;;;;5089777;28;19969;-70
2023/08/30 09:22:12;;;;;;;;;;;18.90;68.90;;;;;;5091822;28;20006;-64
2023/08/30 09:24:38;;;;;;;;;;;18.90;69.00;;;;;;5090273;28;19924;-65
2023/08/30 09:27:03;;;;;;;;;;;18.80;69.00;;;;;;5077872;28;19928;-67
2023/08/30 09:29:29;;;;;;;;;;;18.90;69.10;;;;;;5092063;28;19968;-72
2023/08/30 09:31:55;;;;;;;;;;;18.90;69.30;;;;;;5100793;28;20006;-72
2023/08/30 09:34:22;;;;;;;;;;;18.80;69.40;;;;;;5098929;28;19973;-67
2023/08/30 09:36:49;;;;;;;;;;;18.90;69.70;;;;;;5100165;28;19927;-69
2023/08/30 09:39:15;;;;;;;;;;;18.90;70.00;;;;;;5098747;28;19920;-65
2023/08/30 09:41:42;;;;;;;;;;;18.90;70.20;;;;;;5098997;28;19931;-71
2023/08/30 09:44:10;;;;;;;;;;;18.90;70.40;;;;;;5099909;28;19924;-70
2023/08/30 09:49:24;;;;;;;;;;;19.00;70.80;;;;;;5103812;27;19931;-65
2023/08/30 09:51:51;;;;;;;;;;;19.00;71.00;;;;;;5103632;28;19928;-63
2023/08/30 09:54:18;;;;;;;;;;;19.00;71.10;;;;;;5088425;28;19940;-66
2023/08/30 09:56:44;;;;;;;;;;;19.10;71.30;;;;;;5087099;28;19920;-65
2023/08/30 09:59:11;;;;;;;;;;;19.10;71.20;;;;;;5122309;27;19924;-75
2023/08/30 10:01:36;;;;;;;;;;;19.10;71.20;;;;;;5141030;27;19920;-66
2023/08/30 10:04:03;;;;;;;;;;;19.00;71.10;;;;;;5108027;28;19946;-66
2023/08/30 10:06:29;;;;;;;;;;;19.00;71.10;;;;;;5108850;28;20014;-72
2023/08/30 10:08:55;;;;;;;;;;;19.00;71.20;;;;;;5108114;28;20023;-66
2023/08/30 10:11:21;;;;;;;;;;;19.00;71.40;;;;;;5108417;28;20270;-65
2023/08/30 10:13:47;;;;;;;;;;;19.00;71.50;;;;;;5103997;28;20485;-66
2023/08/30 10:16:16;;;;;;;;;;;19.00;71.70;;;;;;5107589;28;19923;-71
2023/08/30 10:18:43;;;;;;;;;;;19.00;71.80;;;;;;5142434;27;20252;-66
2023/08/30 10:21:12;;;;;;;;;;;19.10;72.10;;;;;;5107223;28;19920;-66
2023/08/30 10:23:38;;;;;;;;;;;19.10;72.20;;;;;;5109025;28;19919;-65
2023/08/30 10:26:04;;;;;;;;;;;19.10;72.30;;;;;;5108030;28;19919;-66
2023/08/30 10:28:30;;;;;;;;;;;19.10;72.40;;;;;;5107632;28;20299;-66
2023/08/30 10:30:55;;;;;;;;;;;19.10;72.40;;;;;;5108316;28;19967;-73
2023/08/30 10:33:25;;;;;;;;;;;19.20;72.50;;;;;;5109087;28;19920;-74
2023/08/30 10:35:51;;;;;;;;;;;19.20;72.50;;;;;;5108668;28;20275;-65
2023/08/30 10:38:25;;;;;;;;;;;19.10;72.50;;;;;;5107988;28;20011;-72
2023/08/30 10:40:51;;;;;;;;;;;19.20;72.50;;;;;;5108015;28;20437;-66
2023/08/30 10:43:16;;;;;;;;;;;19.20;72.50;;;;;;5107757;28;19927;-66
2023/08/30 10:45:42;;;;;;;;;;;19.20;72.60;;;;;;5107541;28;19920;-65
2023/08/30 10:48:08;;;;;;;;;;;19.20;72.50;;;;;;5107416;28;19924;-72
2023/08/30 10:50:33;;;;;;;;;;;19.10;72.50;;;;;;5107359;28;19973;-66
2023/08/30 10:52:59;;;;;;;;;;;19.10;72.50;;;;;;5106656;28;19927;-66
2023/08/30 10:55:25;;;;;;;;;;;19.10;72.50;;;;;;5108380;28;19930;-66
2023/08/30 10:57:59;;;;;;;;;;;19.10;72.50;;;;;;5107269;28;19920;-66
2023/08/30 11:00:25;;;;;;;;;;;19.10;72.50;;;;;;5095204;28;19986;-71
2023/08/30 11:02:51;;;;;;;;;;;19.00;72.50;;;;;;5094387;28;19920;-67
2023/08/30 11:05:18;;;;;;;;;;;19.00;72.60;;;;;;5091618;28;20409;-67
2023/08/30 11:07:44;;;;;;;;;;;19.00;72.70;;;;;;5092407;28;19924;-73
2023/08/30 11:10:10;;;;;;;;;;;19.00;72.90;;;;;;5093976;28;19927;-66
2023/08/30 11:12:36;;;;;;;;;;;19.00;73.10;;;;;;5092411;28;19920;-72
2023/08/30 11:15:02;;;;;;;;;;;19.00;73.20;;;;;;5092728;28;19924;-75
2023/08/30 11:17:28;;;;;;;;;;;19.00;73.40;;;;;;5093682;28;20383;-67
2023/08/30 11:20:13;;;;;;;;;;;19.00;73.50;;;;;;5092559;28;19926;-70
2023/08/30 11:22:39;;;;;;;;;;;19.00;73.50;;;;;;5092332;28;19927;-67
2023/08/30 11:25:06;;;;;;;;;;;19.00;73.40;;;;;;5094568;28;19931;-67
2023/08/30 11:27:31;;;;;;;;;;;19.00;73.30;;;;;;5093452;28;19924;-72
2023/08/30 11:30:03;;;;;;;;;;;19.00;73.30;;;;;;5093112;28;19927;-72
2023/08/30 11:32:31;;;;;;;;;;;19.00;73.30;;;;;;5094543;28;20009;-72
2023/08/30 11:34:58;;;;;;;;;;;19.00;73.30;;;;;;5094317;28;19920;-72
2023/08/30 11:37:26;;;;;;;;;;;18.90;73.20;;;;;;5094303;28;19927;-72
2023/08/30 11:39:52;;;;;;;;;;;19.00;73.20;;;;;;5093733;28;19920;-72
2023/08/30 11:42:18;;;;;;;;;;;18.90;73.40;;;;;;5093284;28;19963;-74
2023/08/30 11:44:44;;;;;;;;;;;18.90;74.10;;;;;;5094389;28;20440;-73
2023/08/30 11:47:09;;;;;;;;;;;18.90;75.00;;;;;;5094907;28;20367;-72
2023/08/30 11:49:35;;;;;;;;;;;18.90;75.60;;;;;;5095731;28;19949;-67
2023/08/30 11:52:02;;;;;;;;;;;18.90;76.10;;;;;;5096112;28;19966;-67
2023/08/30 11:54:28;;;;;;;;;;;18.80;76.30;;;;;;5096444;28;19973;-66
2023/08/30 11:56:53;;;;;;;;;;;18.80;76.60;;;;;;5095945;28;20313;-73
2023/08/30 11:59:20;;;;;;;;;;;18.80;76.70;;;;;;5096332;28;19919;-67
2023/08/30 12:01:46;;;;;;;;;;;18.80;76.90;;;;;;5096100;28;19927;-67
2023/08/30 12:04:11;;;;;;;;;;;18.80;77.00;;;;;;5130393;27;20371;-73
2023/08/30 12:06:37;;;;;;;;;;;18.80;77.00;;;;;;5114149;28;20333;-72
2023/08/30 12:09:04;;;;;;;;;;;18.70;76.90;;;;;;5095856;28;19923;-66
2023/08/30 12:11:31;;;;;;;;;;;18.80;77.00;;;;;;5094849;28;20000;-67
2023/08/30 12:14:01;;;;;;;;;;;18.80;77.00;;;;;;5114001;28;19985;-73
2023/08/30 12:16:27;;;;;;;;;;;18.70;77.00;;;;;;5113932;28;19927;-73
2023/08/30 12:18:52;;;;;;;;;;;18.70;76.90;;;;;;5129774;27;19924;-74
2023/08/30 12:21:18;;;;;;;;;;;18.70;76.80;;;;;;5130085;27;19969;-74
2023/08/30 12:23:43;;;;;;;;;;;18.70;76.80;;;;;;5114027;28;19920;-67
2023/08/30 12:26:09;;;;;;;;;;;18.70;76.70;;;;;;5095923;28;19993;-72
2023/08/30 12:28:36;;;;;;;;;;;18.70;76.70;;;;;;5129615;27;19951;-74
2023/08/30 12:31:04;;;;;;;;;;;18.70;76.60;;;;;;5129798;27;19973;-67
2023/08/30 12:33:29;;;;;;;;;;;18.70;76.50;;;;;;5113668;28;19924;-67
2023/08/30 12:35:55;;;;;;;;;;;18.70;76.50;;;;;;5113203;28;19949;-73
2023/08/30 12:38:21;;;;;;;;;;;18.70;76.40;;;;;;5095060;28;19946;-67
2023/08/30 12:40:48;;;;;;;;;;;18.70;76.40;;;;;;5113216;28;20401;-72
2023/08/30 12:43:14;;;;;;;;;;;18.70;76.30;;;;;;5095217;28;19927;-67
2023/08/30 12:45:40;;;;;;;;;;;18.70;76.20;;;;;;5113150;28;19920;-73
2023/08/30 12:48:06;;;;;;;;;;;18.70;76.30;;;;;;5094740;28;19923;-73
2023/08/30 12:50:32;;;;;;;;;;;18.70;76.20;;;;;;5095022;28;20427;-72
2023/08/30 12:52:57;;;;;;;;;;;18.70;76.10;;;;;;5095298;28;19920;-73
2023/08/30 12:55:23;;;;;;;;;;;18.70;76.10;;;;;;5113406;28;19924;-69
2023/08/30 12:57:48;;;;;;;;;;;18.60;76.00;;;;;;5094913;28;19920;-67
2023/08/30 13:00:14;;;;;;;;;;;18.60;76.00;;;;;;5094985;28;19920;-67
2023/08/30 13:02:40;;;;;;;;;;;18.70;76.00;;;;;;5095283;28;19923;-72
2023/08/30 13:05:05;;;;;;;;;;;18.70;76.00;;;;;;5094955;28;20320;-74
2023/08/30 13:07:31;;;;;;;;;;;18.70;75.90;;;;;;5112971;28;20530;-73
2023/08/30 13:09:56;;;;;;;;;;;18.60;75.80;;;;;;5095060;28;19926;-72
2023/08/30 13:12:22;;;;;;;;;;;18.70;75.80;;;;;;5112860;28;20367;-67
2023/08/30 13:14:47;;;;;;;;;;;18.70;75.60;;;;;;5112868;28;19934;-73
2023/08/30 13:17:13;;;;;;;;;;;18.70;75.60;;;;;;5113039;28;20307;-73
2023/08/30 13:19:38;;;;;;;;;;;18.70;75.70;;;;;;5094245;28;20385;-67
2023/08/30 13:22:04;;;;;;;;;;;18.70;75.40;;;;;;5094129;28;20014;-73
2023/08/30 13:24:32;;;;;;;;;;;18.60;75.20;;;;;;5094370;28;19927;-74
2023/08/30 13:26:58;;;;;;;;;;;18.70;75.20;;;;;;5094782;28;19973;-72
2023/08/30 13:29:23;;;;;;;;;;;18.70;75.20;;;;;;5094103;28;20328;-73
2023/08/30 13:31:48;;;;;;;;;;;18.70;75.10;;;;;;5094461;28;19920;-72
2023/08/30 13:34:14;;;;;;;;;;;18.70;75.20;;;;;;5094645;28;19920;-72
2023/08/30 13:36:39;;;;;;;;;;;18.70;75.20;;;;;;5112668;28;20271;-72
2023/08/30 13:39:05;;;;;;;;;;;18.70;75.20;;;;;;5094597;28;19924;-67
2023/08/30 13:41:30;;;;;;;;;;;18.70;75.20;;;;;;5094723;28;19935;-66
2023/08/30 13:43:56;;;;;;;;;;;18.70;75.20;;;;;;5094585;28;19958;-72
2023/08/30 13:46:21;;;;;;;;;;;18.70;75.10;;;;;;5112408;28;19920;-67
2023/08/30 13:48:47;;;;;;;;;;;18.70;75.10;;;;;;5093756;28;19971;-67
2023/08/30 13:51:13;;;;;;;;;;;18.70;75.10;;;;;;5094001;28;19919;-67
2023/08/30 13:53:38;;;;;;;;;;;18.70;75.00;;;;;;5128315;28;20014;-67
2023/08/30 13:56:04;;;;;;;;;;;18.60;74.90;;;;;;5112521;28;19967;-67
2023/08/30 13:58:29;;;;;;;;;;;18.60;74.80;;;;;;5111507;28;19926;-67
2023/08/30 14:00:55;;;;;;;;;;;18.70;74.80;;;;;;5093850;28;19923;-67
2023/08/30 14:03:20;;;;;;;;;;;18.70;74.70;;;;;;5093648;28;19920;-67
2023/08/30 14:05:46;;;;;;;;;;;18.70;74.70;;;;;;5128512;28;19930;-67
2023/08/30 14:08:11;;;;;;;;;;;18.70;74.70;;;;;;5112167;28;20401;-67
2023/08/30 14:10:37;;;;;;;;;;;18.70;74.60;;;;;;5094533;28;20424;-70
2023/08/30 14:13:03;;;;;;;;;;;18.70;74.40;;;;;;5094431;28;19958;-73
2023/08/30 14:15:28;;;;;;;;;;;18.70;74.20;;;;;;5111820;28;19920;-67
2023/08/30 14:17:54;;;;;;;;;;;18.70;74.10;;;;;;5092552;28;19920;-67
2023/08/30 14:20:19;;;;;;;;;;;18.70;74.20;;;;;;5092920;28;19938;-67
2023/08/30 14:22:45;;;;;;;;;;;18.70;74.30;;;;;;5094124;28;19930;-67
2023/08/30 14:25:12;;;;;;;;;;;18.70;74.20;;;;;;5128285;28;20003;-74